• Join FlightAware (Why Join?)
  • Login
  • US Flag 
Rudolph Flight #1: Arrived! 
07:03AM EST


 

Airport Tracker/Info


-or-


 

Live Flight TrackerFlight Track Log ✈ EJA947 ✈ 18-Apr-2013 ✈ KTEB - KGSO

Flight Track Log - Related Links

Times and Time Zones

All times are in EDT time to prevent confusion due to time zone crossing. See the EJA947 flight status page for this flight to view local times or setup timezone preferences in your user account.

Time Position Orientation Groundspeed Altitude Reporting Facility
EDT Latitude Longitude Course Direction KTS MPH feet Rate Location/Type
07:55AM 40.8892 -74.0458 353° North 192 221 1,800  Level New York Center
07:55AM 40.9167 -74.0500 353° North 225 259 3,400 1,680 Climbing New York TRACON
07:58AM 40.8481 -74.2411 245° Southwest 246 283 7,000 1,500 Climbing New York Center
07:59AM 40.8122 -74.3244 240° Southwest 252 290 8,700 1,920 Climbing New York Center
08:00AM 40.7847 -74.4106 247° West 281 323 11,000 1,980 Climbing New York Center
08:01AM 40.7414 -74.5317 245° Southwest 327 376 12,700 1,860 Climbing New York Center
08:02AM 40.6906 -74.6192 233° Southwest 343 395 14,800 1,980 Climbing New York Center
08:03AM 40.6142 -74.7242 226° Southwest 360 414 16,600 1,560 Climbing New York Center
08:04AM 40.5489 -74.8078 224° Southwest 371 427 18,000 1,560 Climbing New York Center
08:05AM 40.4681 -74.9122 225° Southwest 377 434 19,800 1,560 Climbing New York Center
08:06AM 40.3958 -75.0114 226° Southwest 377 434 21,200 1,380 Climbing New York Center
08:07AM 40.3231 -75.1239 230° Southwest 386 444 22,700 1,620 Climbing New York Center
08:08AM 40.2478 -75.2361 229° Southwest 407 468 24,500 1,560 Climbing New York Center
08:09AM 40.1725 -75.3508 229° Southwest 413 475 25,900 1,380 Climbing New York Center
08:10AM 40.0908 -75.4703 228° Southwest 427 491 27,300 1,320 Climbing New York Center
08:11AM 40.0086 -75.5950 229° Southwest 441 507 28,600 1,500 Climbing New York Center
08:12AM 39.9219 -75.7242 229° Southwest 461 531 30,400 1,560 Climbing New York Center
08:13AM 39.8353 -75.8506 228° Southwest 467 537 31,800 1,080 Climbing New York Center
08:15AM 39.6750 -76.0794 228° Southwest 472 543 33,500 780 Climbing Washington Center
08:16AM 39.5850 -76.2161 230° Southwest 484 557 34,000 240 Climbing Washington Center
08:17AM 39.4883 -76.3525 227° Southwest 508 585 34,000  Level Washington Center
08:18AM 39.3997 -76.4939 231° Southwest 519 597 34,000  Level Washington Center
08:19AM 39.2944 -76.6508 229° Southwest 524 603 34,000  Level Washington Center
08:20AM 39.2033 -76.7917 230° Southwest 524 603 34,000  Level Washington Center
08:21AM 39.1144 -76.9319 231° Southwest 518 596 34,000  Level Washington Center
08:22AM 39.0169 -77.0636 226° Southwest 518 596 34,000  Level Washington Center
08:23AM 38.9092 -77.1842 221° Southwest 518 596 34,000 -600 Level Washington Center
08:24AM 38.7992 -77.3044 220° Southwest 518 596 32,800 -1,560 Descending Washington Center
08:25AM 38.7036 -77.4111 221° Southwest 518 596 30,900 -1,440 Descending Washington Center
08:26AM 38.5956 -77.5281 220° Southwest 518 596 30,000 -480 Descending Washington Center
08:27AM 38.4872 -77.6472 221° Southwest 518 596 30,000  Level Washington Center
08:28AM 38.3789 -77.7636 220° Southwest 518 596 30,000  Level Washington Center
08:29AM 38.2703 -77.8819 221° Southwest 518 596 30,000  Level Washington Center
08:30AM 38.1594 -78.0000 220° Southwest 518 596 30,000  Level Washington Center
08:31AM 38.0508 -78.1178 221° Southwest 518 596 30,000  Level Washington Center
08:32AM 37.9456 -78.2619 227° Southwest 513 590 30,000 -60 Level Washington Center
08:33AM 37.8506 -78.3953 228° Southwest 513 590 29,900 -540 Descending Washington Center
08:34AM 37.7556 -78.5308 228° Southwest 513 590 29,000 -1,260 Descending Washington Center
08:35AM 37.6647 -78.6611 229° Southwest 513 590 27,400 -1,800 Descending Washington Center
08:36AM 37.5825 -78.7733 227° Southwest 508 585 25,400 -2,040 Descending Washington Center
08:37AM 37.4958 -78.8953 228° Southwest 495 570 23,400 -1,740 Descending Washington Center
08:38AM 37.4111 -79.0172 229° Southwest 481 554 22,000 -720 Descending Washington Center
08:39AM 37.3261 -79.1361 228° Southwest 471 542 22,000  Level Washington Center
08:40AM 37.2253 -79.2306 217° Southwest 460 529 22,000 -180 Level Washington Center
08:41AM 37.1000 -79.3078 206° Southwest 455 524 21,700 -1,200 Descending Washington Center
08:42AM 36.9933 -79.3781 208° Southwest 455 524 19,600 -2,040 Descending Washington Center
08:43AM 36.8847 -79.4456 206° Southwest 443 510 17,700 -1,980 Descending Washington Center
08:44AM 36.7847 -79.5106 208° Southwest 436 502 15,700 -1,860 Descending Washington Center
08:45AM 36.6950 -79.5683 207° Southwest 407 468 14,000 -1,740 Descending Washington Center
08:47AM 36.5014 -79.6490 208° Southwest  Level FlightAware Approximate
08:54AM 36.1000 -79.9333 28° Northeast  Level FlightAware Approximate
08:55AM 36.1013 -79.9411 28° Northeast  Level Estimated
08:56AM 36.1000 -79.9333 28° Northeast  Level FlightAware Approximate
08:57AM 36.1013 -79.9411 28° Northeast  Level Estimated
08:58AM 36.1000 -79.9333 28° Northeast  Level FlightAware Approximate
08:59AM 36.1013 -79.9411 28° Northeast  Level Estimated
09:00AM 36.1000 -79.9333 28° Northeast  Level FlightAware Approximate
09:01AM 36.1013 -79.9411 28° Northeast  Level Estimated